Time;durP1;ratioP1;P1;durP2;ratioP2;P2;SDS_P1;SDS_P2;PMS_P1;PMS_P2;Temp;Humidity;BMP_temperature;BMP_pressure;BME280_temperature;BME280_humidity;BME280_pressure;Samples;Min_cycle;Max_cycle;Signal;HPM_P1;HPM_P2
2024/01/28 00:00:33;;;;;;;16.57;10.50;;;0.90;97.70;;;;;;935168;148;27297;-83
2024/01/28 00:02:59;;;;;;;16.73;10.83;;;0.90;97.80;;;;;;934460;148;27314;-83
2024/01/28 00:05:26;;;;;;;13.13;10.03;;;1.00;98.10;;;;;;936613;148;27373;-84
2024/01/28 00:07:53;;;;;;;12.83;9.97;;;1.00;98.20;;;;;;936992;148;27491;-82
2024/01/28 00:10:19;;;;;;;16.30;8.90;;;1.00;98.20;;;;;;943951;148;27339;-82
2024/01/28 00:12:46;;;;;;;16.10;9.50;;;1.00;98.30;;;;;;942814;149;27304;-82
2024/01/28 00:15:12;;;;;;;14.23;9.80;;;1.00;98.30;;;;;;946003;149;27349;-84
2024/01/28 00:17:39;;;;;;;12.77;9.47;;;1.00;98.30;;;;;;942845;149;27514;-82
2024/01/28 00:20:06;;;;;;;13.40;10.20;;;1.00;98.30;;;;;;942755;149;27331;-81
2024/01/28 00:22:32;;;;;;;20.67;11.40;;;1.00;98.20;;;;;;944960;149;27286;-82
2024/01/28 00:25:00;;;;;;;16.10;11.27;;;1.00;98.50;;;;;;945603;149;27896;-82
2024/01/28 00:27:27;;;;;;;17.37;11.10;;;1.00;98.30;;;;;;943672;149;27346;-81
2024/01/28 00:29:53;;;;;;;13.77;9.77;;;1.00;98.20;;;;;;944594;149;27386;-82
2024/01/28 00:32:20;;;;;;;13.87;10.20;;;1.00;98.30;;;;;;943056;149;27339;-82
2024/01/28 00:34:47;;;;;;;13.63;9.93;;;1.00;98.20;;;;;;943913;149;28487;-82
2024/01/28 00:37:13;;;;;;;14.17;9.63;;;1.00;98.40;;;;;;947050;149;27413;-82
2024/01/28 00:39:40;;;;;;;14.73;10.27;;;1.00;98.40;;;;;;943523;149;27321;-82
2024/01/28 00:42:06;;;;;;;18.97;12.77;;;1.00;98.40;;;;;;944319;149;27316;-83
2024/01/28 00:44:33;;;;;;;19.07;12.60;;;1.00;98.50;;;;;;944071;149;27472;-82
2024/01/28 00:46:59;;;;;;;16.60;11.13;;;1.00;98.50;;;;;;945260;149;27377;-82
2024/01/28 00:49:32;;;;;;;16.97;11.10;;;1.00;98.40;;;;;;945602;149;27272;-83
2024/01/28 00:51:59;;;;;;;14.00;10.53;;;0.90;98.40;;;;;;943702;149;27467;-82
2024/01/28 00:54:25;;;;;;;12.83;9.87;;;0.90;98.40;;;;;;944748;148;27330;-82
2024/01/28 00:56:56;;;;;;;16.80;11.30;;;0.90;98.40;;;;;;945916;148;27296;-82
2024/01/28 00:59:21;;;;;;;15.67;10.47;;;0.90;98.40;;;;;;949588;148;27330;-82
2024/01/28 01:01:48;;;;;;;17.60;10.73;;;0.90;98.40;;;;;;950058;148;27271;-83
2024/01/28 01:04:14;;;;;;;13.70;9.80;;;0.90;98.30;;;;;;949511;148;27391;-86
2024/01/28 01:06:44;;;;;;;14.10;9.47;;;0.80;98.20;;;;;;928141;150;27362;-86
2024/01/28 01:09:10;;;;;;;12.90;8.93;;;0.80;98.10;;;;;;945774;149;27478;-86
2024/01/28 01:11:37;;;;;;;10.97;7.47;;;0.80;98.00;;;;;;945257;149;27322;-85
2024/01/28 01:14:04;;;;;;;9.40;7.33;;;0.70;98.00;;;;;;944126;149;27377;-82
2024/01/28 01:16:30;;;;;;;9.47;7.30;;;0.70;98.00;;;;;;944560;149;27289;-82
2024/01/28 01:18:57;;;;;;;12.03;6.97;;;0.70;98.00;;;;;;943895;149;27300;-81
2024/01/28 01:21:23;;;;;;;9.47;6.50;;;0.70;98.00;;;;;;944707;149;27364;-83
2024/01/28 01:23:50;;;;;;;8.93;7.23;;;0.60;98.10;;;;;;945159;149;27463;-82
2024/01/28 01:26:16;;;;;;;9.63;6.97;;;0.60;98.00;;;;;;946001;149;27338;-81
2024/01/28 01:28:43;;;;;;;9.03;5.97;;;0.60;98.00;;;;;;944698;149;27309;-82
2024/01/28 01:31:10;;;;;;;6.60;5.83;;;0.60;98.30;;;;;;943939;149;27326;-82
2024/01/28 01:33:36;;;;;;;8.93;6.10;;;0.50;98.00;;;;;;945701;149;27429;-84
2024/01/28 01:36:03;;;;;;;9.57;6.63;;;0.50;98.00;;;;;;944588;149;27413;-81
2024/01/28 01:38:29;;;;;;;9.47;6.33;;;0.50;98.10;;;;;;946865;149;27310;-81
2024/01/28 01:40:56;;;;;;;7.60;6.63;;;0.50;98.20;;;;;;944157;149;27397;-82
2024/01/28 01:43:23;;;;;;;12.43;6.83;;;0.50;98.40;;;;;;943366;149;27414;-82
2024/01/28 01:45:49;;;;;;;9.07;6.87;;;0.40;98.40;;;;;;944276;149;27473;-81
2024/01/28 01:48:16;;;;;;;10.03;6.97;;;0.40;98.40;;;;;;945307;149;27456;-81
2024/01/28 01:50:43;;;;;;;6.47;5.77;;;0.40;98.40;;;;;;944888;149;27265;-81
2024/01/28 01:53:09;;;;;;;11.10;7.57;;;0.40;98.30;;;;;;943237;149;27403;-82
2024/01/28 01:55:36;;;;;;;10.73;6.93;;;0.40;98.30;;;;;;947698;148;27325;-84
2024/01/28 01:58:03;;;;;;;9.50;6.53;;;0.40;98.40;;;;;;944907;148;27446;-81
2024/01/28 02:00:29;;;;;;;10.20;6.77;;;0.40;98.40;;;;;;944544;149;27306;-81
2024/01/28 02:02:55;;;;;;;9.70;7.37;;;0.40;98.40;;;;;;944538;149;27316;-82
2024/01/28 02:05:22;;;;;;;8.30;6.93;;;0.30;98.50;;;;;;944165;149;27386;-84
2024/01/28 02:07:48;;;;;;;14.37;9.23;;;0.30;98.60;;;;;;945045;149;27344;-81
2024/01/28 02:10:15;;;;;;;9.83;7.10;;;0.30;98.70;;;;;;942645;148;27334;-81
2024/01/28 02:12:43;;;;;;;9.00;6.70;;;0.30;99.00;;;;;;934274;149;27324;-82
2024/01/28 02:15:11;;;;;;;7.33;6.47;;;0.30;99.20;;;;;;935969;148;27334;-86
2024/01/28 02:17:35;;;;;;;9.00;6.20;;;0.30;99.50;;;;;;937733;148;27461;-87
2024/01/28 02:20:01;;;;;;;9.23;6.33;;;0.30;99.70;;;;;;938754;148;28501;-86
2024/01/28 02:22:28;;;;;;;11.57;6.20;;;0.40;99.90;;;;;;937170;148;27426;-86
2024/01/28 02:24:54;;;;;;;8.17;5.60;;;0.40;99.90;;;;;;937845;148;27386;-83
2024/01/28 02:27:21;;;;;;;7.50;5.57;;;0.40;99.90;;;;;;936363;148;27361;-83
2024/01/28 02:29:48;;;;;;;10.17;6.00;;;0.50;99.90;;;;;;936854;148;27364;-82
2024/01/28 02:32:14;;;;;;;8.77;5.83;;;0.50;99.90;;;;;;936623;148;27299;-82
2024/01/28 02:34:41;;;;;;;9.27;5.80;;;0.60;99.90;;;;;;934684;149;27381;-83
2024/01/28 02:37:09;;;;;;;8.07;6.00;;;0.60;99.90;;;;;;934876;150;27276;-83
2024/01/28 02:39:34;;;;;;;6.13;5.40;;;0.70;99.90;;;;;;937329;148;27398;-82
2024/01/28 02:42:01;;;;;;;9.93;6.50;;;0.70;99.90;;;;;;938061;148;27357;-82
2024/01/28 02:44:27;;;;;;;10.23;6.47;;;0.70;99.90;;;;;;937941;148;27349;-83
2024/01/28 02:46:55;;;;;;;8.23;5.63;;;0.70;99.90;;;;;;939022;148;27316;-83
2024/01/28 02:49:21;;;;;;;9.00;6.37;;;0.70;99.90;;;;;;937777;148;27365;-82
2024/01/28 02:51:47;;;;;;;6.83;6.13;;;0.80;99.90;;;;;;937178;148;28507;-83
2024/01/28 02:54:13;;;;;;;7.17;5.57;;;0.80;99.90;;;;;;912400;154;27379;-83
2024/01/28 02:56:40;;;;;;;5.83;5.30;;;0.80;99.90;;;;;;911102;152;27428;-83
2024/01/28 02:59:07;;;;;;;11.83;6.33;;;0.80;99.90;;;;;;899022;153;27436;-82
2024/01/28 03:01:33;;;;;;;8.13;6.60;;;0.80;99.90;;;;;;902304;155;27433;-82
2024/01/28 03:04:00;;;;;;;8.37;6.20;;;0.80;99.90;;;;;;935106;148;27358;-82
2024/01/28 03:06:28;;;;;;;9.70;6.07;;;0.70;99.90;;;;;;936562;148;27365;-83
2024/01/28 03:08:53;;;;;;;9.40;6.27;;;0.80;99.90;;;;;;935261;148;27477;-83
2024/01/28 03:11:20;;;;;;;8.23;6.10;;;0.70;99.90;;;;;;935278;148;27522;-82
2024/01/28 03:13:46;;;;;;;8.70;6.50;;;0.70;99.80;;;;;;934244;149;27400;-83
2024/01/28 03:16:13;;;;;;;7.80;6.63;;;0.70;99.70;;;;;;917873;151;27442;-83
2024/01/28 03:18:39;;;;;;;9.73;6.97;;;0.70;99.70;;;;;;918633;152;27310;-82
2024/01/28 03:21:06;;;;;;;8.83;7.53;;;0.60;99.60;;;;;;918196;152;27490;-83
2024/01/28 03:23:32;;;;;;;8.83;7.40;;;0.60;99.60;;;;;;933855;149;27319;-82
2024/01/28 03:25:59;;;;;;;8.43;6.83;;;0.60;99.50;;;;;;917684;152;27821;-84
2024/01/28 03:28:26;;;;;;;13.27;7.20;;;0.60;99.60;;;;;;934060;149;27310;-84
2024/01/28 03:30:52;;;;;;;9.30;6.67;;;0.50;99.40;;;;;;918429;152;27399;-84
2024/01/28 03:33:20;;;;;;;7.27;6.33;;;0.50;99.40;;;;;;934117;149;27813;-84
2024/01/28 03:35:45;;;;;;;8.23;7.03;;;0.50;99.40;;;;;;917551;152;27308;-86
2024/01/28 03:38:12;;;;;;;10.67;7.10;;;0.50;99.40;;;;;;933717;150;27696;-85
2024/01/28 03:40:39;;;;;;;8.93;6.63;;;0.40;99.40;;;;;;934635;150;27322;-83
2024/01/28 03:43:05;;;;;;;11.80;8.07;;;0.40;99.40;;;;;;933848;150;27449;-86
2024/01/28 03:45:32;;;;;;;9.57;7.53;;;0.40;99.60;;;;;;933771;150;27348;-86
2024/01/28 03:47:58;;;;;;;14.43;8.33;;;0.40;99.50;;;;;;933783;150;27328;-85
2024/01/28 03:50:25;;;;;;;8.87;7.07;;;0.40;99.50;;;;;;918661;152;27373;-84
2024/01/28 03:52:52;;;;;;;10.37;7.30;;;0.30;99.60;;;;;;918135;152;27400;-85
2024/01/28 03:55:18;;;;;;;11.53;7.77;;;0.40;99.50;;;;;;933913;150;27404;-85
2024/01/28 03:57:45;;;;;;;10.47;7.80;;;0.30;99.50;;;;;;916983;151;27377;-84
2024/01/28 04:00:11;;;;;;;11.23;7.97;;;0.30;99.40;;;;;;934550;148;27457;-85
2024/01/28 04:02:41;;;;;;;10.20;7.43;;;0.30;99.60;;;;;;933948;150;27360;-83
2024/01/28 04:05:07;;;;;;;9.93;7.73;;;0.30;99.50;;;;;;933343;150;27414;-84
2024/01/28 04:07:33;;;;;;;13.67;7.50;;;0.30;99.50;;;;;;933590;150;28308;-85
2024/01/28 04:10:00;;;;;;;9.70;6.70;;;0.20;99.60;;;;;;933344;150;27408;-83
2024/01/28 04:12:27;;;;;;;12.47;7.17;;;0.20;99.60;;;;;;938434;149;27484;-85
2024/01/28 04:14:53;;;;;;;10.73;8.03;;;0.20;99.70;;;;;;939060;149;27366;-85
2024/01/28 04:17:20;;;;;;;9.20;6.90;;;0.20;99.60;;;;;;932692;149;27325;-84
2024/01/28 04:19:46;;;;;;;10.33;7.03;;;0.20;99.70;;;;;;943722;148;27484;-84
2024/01/28 04:22:13;;;;;;;12.13;7.30;;;0.10;99.70;;;;;;946281;149;27307;-84
2024/01/28 04:24:40;;;;;;;11.00;8.20;;;0.10;99.80;;;;;;942879;149;28305;-85
2024/01/28 04:27:06;;;;;;;9.87;7.43;;;0.10;99.90;;;;;;946008;149;27228;-84
2024/01/28 04:29:33;;;;;;;14.20;7.90;;;0.10;99.90;;;;;;942999;148;27281;-85
2024/01/28 04:31:59;;;;;;;9.33;7.60;;;0.10;99.80;;;;;;945062;149;27385;-84
2024/01/28 04:34:26;;;;;;;11.07;7.40;;;0.10;99.90;;;;;;944322;149;27352;-85
2024/01/28 04:36:52;;;;;;;10.67;7.13;;;0.10;99.90;;;;;;943732;149;27320;-83
2024/01/28 04:39:19;;;;;;;10.07;6.77;;;0.10;99.90;;;;;;942604;149;27334;-83
2024/01/28 04:41:46;;;;;;;9.57;6.70;;;0.10;99.90;;;;;;945928;148;27382;-83
2024/01/28 04:44:12;;;;;;;9.33;6.20;;;0.10;99.90;;;;;;945691;149;27378;-83
2024/01/28 04:46:39;;;;;;;10.93;6.90;;;0.10;99.90;;;;;;946550;149;27359;-83
2024/01/28 04:49:05;;;;;;;8.03;6.67;;;0.10;99.90;;;;;;940227;149;27281;-83
2024/01/28 04:51:33;;;;;;;9.20;7.40;;;0.10;99.90;;;;;;942362;149;27334;-83
2024/01/28 04:53:59;;;;;;;10.03;7.10;;;0.10;99.90;;;;;;941865;148;27373;-83
2024/01/28 04:56:26;;;;;;;10.67;7.70;;;0.10;99.90;;;;;;943259;149;27328;-83
2024/01/28 04:58:52;;;;;;;11.17;7.10;;;0.10;99.90;;;;;;941769;149;27318;-83
2024/01/28 05:01:18;;;;;;;12.20;8.00;;;0.00;99.90;;;;;;942228;149;27356;-83
2024/01/28 05:03:45;;;;;;;11.03;7.70;;;0.10;99.90;;;;;;942352;149;27432;-83
2024/01/28 05:06:12;;;;;;;7.77;6.80;;;0.00;99.90;;;;;;942984;149;27459;-83
2024/01/28 05:08:38;;;;;;;11.23;7.87;;;0.00;99.90;;;;;;941860;149;27398;-83
2024/01/28 05:11:05;;;;;;;10.40;8.20;;;0.00;99.90;;;;;;941872;149;27408;-83
2024/01/28 05:13:31;;;;;;;9.27;7.63;;;0.00;99.90;;;;;;946208;148;27377;-83
2024/01/28 05:15:58;;;;;;;9.97;7.40;;;0.00;99.90;;;;;;948291;148;27470;-83
2024/01/28 05:18:26;;;;;;;9.20;6.73;;;0.00;99.90;;;;;;947321;148;27860;-83
2024/01/28 05:20:51;;;;;;;8.33;7.43;;;0.00;99.90;;;;;;947917;148;27316;-83
2024/01/28 05:23:18;;;;;;;10.90;7.17;;;0.00;99.90;;;;;;947779;148;27475;-83
2024/01/28 05:25:44;;;;;;;9.97;6.93;;;-0.10;99.90;;;;;;947355;148;27353;-83
2024/01/28 05:28:11;;;;;;;10.03;7.23;;;-0.10;99.90;;;;;;948968;148;27366;-83
2024/01/28 05:30:37;;;;;;;9.10;7.07;;;-0.10;99.90;;;;;;949445;148;27303;-83
2024/01/28 05:33:04;;;;;;;13.70;7.83;;;-0.10;99.90;;;;;;947478;148;27393;-83
2024/01/28 05:35:32;;;;;;;10.90;7.40;;;-0.10;99.90;;;;;;948828;148;27415;-83
2024/01/28 05:37:57;;;;;;;10.67;7.17;;;-0.10;99.90;;;;;;946886;148;27818;-83
2024/01/28 05:40:24;;;;;;;11.63;7.87;;;-0.10;99.90;;;;;;946685;148;27386;-83
2024/01/28 05:42:50;;;;;;;12.60;7.07;;;-0.10;99.90;;;;;;947698;148;27799;-83
2024/01/28 05:45:17;;;;;;;9.17;6.57;;;-0.20;99.90;;;;;;947842;148;27346;-83
2024/01/28 05:47:43;;;;;;;10.77;7.67;;;-0.10;99.90;;;;;;948579;148;27437;-83
2024/01/28 05:50:10;;;;;;;11.17;7.17;;;-0.20;99.90;;;;;;948417;148;27434;-81
2024/01/28 05:52:37;;;;;;;9.37;6.53;;;-0.20;99.90;;;;;;949904;148;27278;-82
2024/01/28 05:55:03;;;;;;;8.20;6.57;;;-0.20;99.90;;;;;;947720;148;27282;-82
2024/01/28 05:57:30;;;;;;;8.37;6.57;;;-0.20;99.90;;;;;;949408;148;27369;-83
2024/01/28 05:59:56;;;;;;;9.00;7.17;;;-0.20;99.90;;;;;;949853;148;27340;-85
2024/01/28 06:02:23;;;;;;;10.17;7.60;;;-0.20;99.90;;;;;;947925;148;27326;-86
2024/01/28 06:04:50;;;;;;;10.07;7.50;;;-0.30;99.90;;;;;;948132;148;27350;-85
2024/01/28 06:07:16;;;;;;;9.37;7.70;;;-0.20;99.90;;;;;;947850;148;27298;-85
2024/01/28 06:09:43;;;;;;;10.43;7.80;;;-0.30;99.90;;;;;;948226;148;27428;-84
2024/01/28 06:12:09;;;;;;;8.43;6.67;;;-0.30;99.90;;;;;;950644;148;27362;-84
2024/01/28 06:14:36;;;;;;;12.03;7.47;;;-0.30;99.90;;;;;;932035;150;27374;-84
2024/01/28 06:17:03;;;;;;;8.13;6.87;;;-0.30;99.90;;;;;;930024;150;27407;-84
2024/01/28 06:19:29;;;;;;;9.13;6.17;;;-0.30;99.90;;;;;;932289;150;27774;-82
2024/01/28 06:22:00;;;;;;;10.53;6.57;;;-0.30;99.90;;;;;;930354;150;27352;-84
2024/01/28 06:24:23;;;;;;;8.13;6.50;;;-0.30;99.90;;;;;;931886;150;27300;-84
2024/01/28 06:26:49;;;;;;;8.07;6.67;;;-0.20;99.90;;;;;;931131;150;27364;-85
2024/01/28 06:29:16;;;;;;;8.87;6.50;;;-0.20;99.90;;;;;;930688;150;27343;-84
2024/01/28 06:31:42;;;;;;;7.87;6.00;;;-0.20;99.90;;;;;;930318;150;27411;-84
2024/01/28 06:34:09;;;;;;;8.70;6.83;;;-0.30;99.90;;;;;;931457;150;27265;-84
2024/01/28 06:36:35;;;;;;;8.37;7.07;;;-0.20;99.90;;;;;;930173;150;27291;-84
2024/01/28 06:39:02;;;;;;;9.13;6.90;;;-0.30;99.90;;;;;;929823;150;27412;-84
2024/01/28 06:41:28;;;;;;;8.40;6.87;;;-0.30;99.90;;;;;;932376;150;27413;-85
2024/01/28 06:43:55;;;;;;;10.53;6.23;;;-0.30;99.90;;;;;;929924;150;27265;-84
2024/01/28 06:46:22;;;;;;;9.67;6.57;;;-0.30;99.90;;;;;;931210;150;27409;-85
2024/01/28 06:48:48;;;;;;;6.57;5.87;;;-0.30;99.90;;;;;;929172;150;27331;-85
2024/01/28 06:51:15;;;;;;;13.53;7.57;;;-0.30;99.90;;;;;;930931;150;27340;-82
2024/01/28 06:53:41;;;;;;;8.17;7.10;;;-0.30;99.90;;;;;;930391;150;27461;-84
2024/01/28 06:56:08;;;;;;;8.20;6.47;;;-0.30;99.90;;;;;;929368;150;27254;-84
2024/01/28 06:58:35;;;;;;;11.17;7.13;;;-0.30;99.90;;;;;;930461;150;27322;-82
2024/01/28 07:01:02;;;;;;;10.60;6.60;;;-0.30;99.90;;;;;;929912;150;27282;-82
2024/01/28 07:03:28;;;;;;;7.67;6.77;;;-0.30;99.90;;;;;;930425;150;27389;-83
2024/01/28 07:05:54;;;;;;;8.53;6.60;;;-0.30;99.90;;;;;;928562;150;27306;-82
2024/01/28 07:08:21;;;;;;;8.80;6.47;;;-0.30;99.90;;;;;;930059;150;27404;-80
2024/01/28 07:10:47;;;;;;;7.43;6.30;;;-0.30;99.90;;;;;;928206;150;27261;-83
2024/01/28 07:13:14;;;;;;;9.43;6.40;;;-0.30;99.90;;;;;;929141;150;27354;-81
2024/01/28 07:15:41;;;;;;;10.10;6.87;;;-0.30;99.90;;;;;;930348;150;27475;-81
2024/01/28 07:18:07;;;;;;;10.13;6.77;;;-0.30;99.90;;;;;;930098;150;27416;-81
2024/01/28 07:20:34;;;;;;;8.83;7.00;;;-0.20;99.90;;;;;;930516;150;27392;-81
2024/01/28 07:23:00;;;;;;;8.27;6.60;;;-0.10;99.90;;;;;;930495;150;27352;-83
2024/01/28 07:25:27;;;;;;;9.27;6.83;;;0.00;99.90;;;;;;922457;152;27487;-80
2024/01/28 07:27:54;;;;;;;8.40;6.83;;;0.20;99.90;;;;;;936639;149;27647;-80
2024/01/28 07:30:21;;;;;;;11.47;6.70;;;0.50;99.90;;;;;;936932;149;27309;-80
2024/01/28 07:32:47;;;;;;;7.63;6.17;;;0.80;99.90;;;;;;936888;149;27302;-81
2024/01/28 07:35:15;;;;;;;7.20;6.50;;;1.10;99.90;;;;;;938256;148;27369;-80
2024/01/28 07:37:40;;;;;;;9.10;6.77;;;1.40;99.90;;;;;;935293;149;27279;-80
2024/01/28 07:40:07;;;;;;;8.07;6.53;;;1.80;99.90;;;;;;937778;149;27701;-80
2024/01/28 07:42:33;;;;;;;9.00;7.33;;;2.10;99.90;;;;;;936050;149;27427;-80
2024/01/28 07:45:00;;;;;;;10.07;7.13;;;2.50;99.90;;;;;;935148;149;27381;-79
2024/01/28 07:47:26;;;;;;;14.23;7.73;;;2.90;99.90;;;;;;938092;149;27468;-80
2024/01/28 07:49:53;;;;;;;11.27;7.33;;;3.40;99.90;;;;;;937932;149;27329;-80
2024/01/28 07:52:20;;;;;;;8.67;7.57;;;3.80;99.90;;;;;;928132;150;27354;-80
2024/01/28 07:54:46;;;;;;;11.40;7.30;;;4.30;99.90;;;;;;941708;149;27344;-83
2024/01/28 07:57:13;;;;;;;10.17;7.63;;;4.80;99.90;;;;;;925530;150;27372;-81
2024/01/28 07:59:39;;;;;;;11.10;8.07;;;5.30;99.90;;;;;;939883;148;27365;-80
2024/01/28 08:02:06;;;;;;;11.70;9.40;;;5.80;99.90;;;;;;939696;148;27457;-80
2024/01/28 08:04:33;;;;;;;10.37;7.43;;;6.40;99.90;;;;;;938671;148;27665;-80
2024/01/28 08:06:59;;;;;;;9.77;7.03;;;6.80;99.90;;;;;;938350;148;27349;-79
2024/01/28 08:09:31;;;;;;;10.90;7.30;;;7.30;99.90;;;;;;945894;148;27374;-85
2024/01/28 08:11:52;;;;;;;9.97;7.03;;;7.70;99.70;;;;;;939215;149;27265;-85
2024/01/28 08:14:19;;;;;;;10.87;8.00;;;8.10;99.10;;;;;;944774;147;27345;-84
2024/01/28 08:16:46;;;;;;;11.17;8.87;;;8.40;98.40;;;;;;952805;147;27378;-82
2024/01/28 08:19:12;;;;;;;15.70;8.83;;;8.90;97.20;;;;;;952438;147;27379;-89
2024/01/28 08:21:39;;;;;;;11.97;8.43;;;9.30;96.20;;;;;;952810;147;27346;-89
2024/01/28 08:24:05;;;;;;;12.73;10.23;;;9.70;95.00;;;;;;951414;147;27260;-86
2024/01/28 08:26:32;;;;;;;11.97;9.67;;;10.00;93.70;;;;;;955042;147;27331;-82
2024/01/28 08:28:58;;;;;;;16.07;9.83;;;10.40;92.50;;;;;;953565;147;27367;-86
2024/01/28 08:31:25;;;;;;;11.60;8.97;;;10.70;91.60;;;;;;951720;147;27348;-86
2024/01/28 08:33:52;;;;;;;11.73;9.03;;;11.00;91.20;;;;;;952704;147;27350;-86
2024/01/28 08:36:18;;;;;;;9.53;8.50;;;11.30;90.90;;;;;;954919;147;27278;-82
2024/01/28 08:38:45;;;;;;;9.50;7.97;;;11.60;90.60;;;;;;951759;147;27441;-86
2024/01/28 08:41:14;;;;;;;8.47;7.37;;;11.80;90.00;;;;;;953151;147;27363;-86
2024/01/28 08:43:43;;;;;;;9.70;7.93;;;12.00;87.40;;;;;;951243;147;27439;-86
2024/01/28 08:46:07;;;;;;;9.00;8.07;;;12.10;84.60;;;;;;949382;147;27492;-85
2024/01/28 08:48:34;;;;;;;14.67;10.53;;;12.20;82.60;;;;;;951406;147;27432;-81
2024/01/28 08:51:01;;;;;;;15.93;11.33;;;12.10;80.90;;;;;;952156;148;27349;-87
2024/01/28 08:53:27;;;;;;;15.93;9.67;;;12.00;79.60;;;;;;952431;147;27281;-87
2024/01/28 08:55:54;;;;;;;9.93;7.37;;;11.90;78.70;;;;;;953545;147;27287;-86
2024/01/28 08:58:21;;;;;;;8.90;7.03;;;11.80;78.90;;;;;;951766;148;27314;-84
2024/01/28 09:00:47;;;;;;;11.73;6.73;;;11.60;78.90;;;;;;952807;147;27376;-87
2024/01/28 09:03:14;;;;;;;8.03;6.93;;;11.50;78.50;;;;;;953384;147;27321;-87
2024/01/28 09:05:40;;;;;;;7.67;6.23;;;11.40;78.20;;;;;;952322;148;27330;-87
2024/01/28 09:08:07;;;;;;;9.53;6.50;;;11.20;78.00;;;;;;952129;147;27364;-87
2024/01/28 09:10:33;;;;;;;8.47;6.20;;;11.00;77.70;;;;;;952885;148;27379;-82
2024/01/28 09:13:00;;;;;;;8.13;6.40;;;10.80;77.00;;;;;;952341;148;27953;-87
2024/01/28 09:15:27;;;;;;;10.57;6.53;;;10.50;76.50;;;;;;935264;148;27300;-87
2024/01/28 09:17:54;;;;;;;9.80;7.20;;;10.20;76.20;;;;;;917320;152;27336;-87
2024/01/28 09:20:20;;;;;;;9.30;6.80;;;9.90;76.20;;;;;;917426;153;27443;-82
2024/01/28 09:22:46;;;;;;;10.93;7.23;;;9.60;76.30;;;;;;917612;153;27385;-88
2024/01/28 09:25:13;;;;;;;9.57;6.60;;;9.30;76.50;;;;;;918309;153;27341;-87
2024/01/28 09:27:39;;;;;;;9.43;6.73;;;9.00;76.90;;;;;;920106;153;27330;-87
2024/01/28 09:30:06;;;;;;;7.60;6.47;;;8.70;77.20;;;;;;920510;152;27332;-81
2024/01/28 09:32:33;;;;;;;9.57;5.87;;;8.50;77.70;;;;;;917318;152;27352;-79
2024/01/28 09:34:59;;;;;;;10.13;6.10;;;8.20;78.00;;;;;;917433;153;27431;-80
2024/01/28 09:37:26;;;;;;;7.27;6.37;;;8.00;78.50;;;;;;917996;153;27324;-80
2024/01/28 09:39:52;;;;;;;8.57;6.63;;;7.80;79.10;;;;;;919245;153;27321;-80
2024/01/28 09:42:31;;;;;;;9.37;6.20;;;7.60;79.50;;;;;;917782;153;27380;-81
2024/01/28 09:44:58;;;;;;;8.57;6.07;;;7.50;80.10;;;;;;917515;153;27464;-80
2024/01/28 09:47:24;;;;;;;9.33;5.73;;;7.30;80.60;;;;;;919336;152;27420;-80
2024/01/28 09:49:51;;;;;;;9.53;5.83;;;7.30;81.20;;;;;;917611;152;27271;-79
2024/01/28 09:52:17;;;;;;;6.30;5.10;;;7.10;81.70;;;;;;917632;153;27373;-82
2024/01/28 09:54:47;;;;;;;7.90;5.57;;;7.00;82.20;;;;;;917425;152;27919;-79
2024/01/28 09:57:14;;;;;;;6.90;5.47;;;7.00;82.80;;;;;;916234;153;27452;-80
2024/01/28 09:59:40;;;;;;;8.10;5.33;;;6.90;83.50;;;;;;920154;153;27357;-80
2024/01/28 10:02:07;;;;;;;8.63;5.97;;;6.80;83.70;;;;;;917335;153;27462;-80
2024/01/28 10:04:34;;;;;;;9.53;5.70;;;6.80;84.60;;;;;;918925;153;27343;-79
2024/01/28 10:07:01;;;;;;;8.70;5.43;;;6.80;85.00;;;;;;918433;153;27293;-80
2024/01/28 10:09:27;;;;;;;8.03;5.70;;;6.80;85.40;;;;;;919520;152;27348;-80
2024/01/28 10:11:53;;;;;;;5.83;4.93;;;6.80;85.90;;;;;;917602;153;27297;-81
2024/01/28 10:14:20;;;;;;;8.17;5.40;;;6.70;86.20;;;;;;918403;153;27372;-80
2024/01/28 10:16:47;;;;;;;10.30;6.73;;;6.70;86.50;;;;;;927077;150;27435;-80
2024/01/28 10:19:13;;;;;;;8.13;6.80;;;6.70;87.00;;;;;;929253;150;27277;-79
2024/01/28 10:21:39;;;;;;;8.50;6.77;;;6.80;87.60;;;;;;929132;150;27426;-80
2024/01/28 10:24:06;;;;;;;7.33;6.40;;;6.80;88.20;;;;;;939153;148;28235;-81
2024/01/28 10:26:33;;;;;;;7.83;6.57;;;6.80;88.80;;;;;;937687;149;27419;-79
2024/01/28 10:28:59;;;;;;;7.53;6.17;;;6.90;89.30;;;;;;936966;149;27322;-79
2024/01/28 10:31:26;;;;;;;8.33;6.17;;;6.90;89.80;;;;;;939219;149;27308;-79
2024/01/28 10:33:52;;;;;;;10.13;6.57;;;7.00;90.10;;;;;;938294;149;27348;-81
2024/01/28 10:36:19;;;;;;;7.47;5.80;;;7.10;90.30;;;;;;938484;149;27727;-80
2024/01/28 10:38:46;;;;;;;8.87;6.13;;;7.20;90.40;;;;;;938078;149;27272;-79
2024/01/28 10:41:15;;;;;;;10.53;6.70;;;7.30;90.60;;;;;;935608;149;27754;-79
2024/01/28 10:43:41;;;;;;;8.00;5.93;;;7.40;90.60;;;;;;940157;149;27362;-81
2024/01/28 10:46:08;;;;;;;8.60;6.20;;;7.40;90.50;;;;;;935492;149;29070;-78
2024/01/28 10:48:34;;;;;;;8.57;5.73;;;7.50;90.50;;;;;;938107;149;27381;-78
2024/01/28 10:51:01;;;;;;;6.97;5.53;;;7.60;90.50;;;;;;937294;148;27330;-79
2024/01/28 10:53:28;;;;;;;7.90;5.70;;;7.70;90.60;;;;;;937699;148;27387;-81
2024/01/28 10:55:54;;;;;;;7.87;5.47;;;7.80;90.50;;;;;;940455;149;27445;-79
2024/01/28 10:58:21;;;;;;;7.97;5.40;;;7.90;90.40;;;;;;937741;149;27392;-78
2024/01/28 11:00:47;;;;;;;6.10;4.77;;;8.00;90.30;;;;;;939377;149;27273;-79
2024/01/28 11:03:14;;;;;;;5.97;4.63;;;8.10;90.10;;;;;;937903;149;27316;-79
2024/01/28 11:05:41;;;;;;;6.97;4.50;;;8.20;89.90;;;;;;938793;149;27780;-79
2024/01/28 11:08:07;;;;;;;7.30;4.07;;;8.30;89.60;;;;;;938940;149;28540;-78
2024/01/28 11:10:34;;;;;;;4.50;3.73;;;8.30;89.40;;;;;;936545;149;28058;-80
2024/01/28 11:13:00;;;;;;;6.53;4.17;;;8.40;89.10;;;;;;939290;149;27319;-80
2024/01/28 11:15:27;;;;;;;6.83;4.63;;;8.50;88.60;;;;;;940343;149;27429;-79
2024/01/28 11:17:53;;;;;;;6.50;4.43;;;8.60;88.00;;;;;;937924;149;27380;-78
2024/01/28 11:20:23;;;;;;;7.20;4.60;;;8.60;87.70;;;;;;938106;149;27828;-79
2024/01/28 11:22:56;;;;;;;5.70;4.37;;;8.70;86.80;;;;;;939938;149;27302;-78
2024/01/28 11:25:22;;;;;;;5.37;4.13;;;8.80;87.40;;;;;;938954;149;27367;-78
2024/01/28 11:27:49;;;;;;;6.53;4.40;;;8.80;87.00;;;;;;939038;149;27437;-82
2024/01/28 11:30:15;;;;;;;6.00;4.20;;;8.90;86.90;;;;;;937363;149;27634;-79
2024/01/28 11:32:42;;;;;;;4.93;3.57;;;8.90;86.60;;;;;;926576;150;27815;-78
2024/01/28 11:35:10;;;;;;;6.63;3.90;;;9.00;86.30;;;;;;937659;148;27439;-78
2024/01/28 11:37:35;;;;;;;4.37;3.87;;;9.00;86.20;;;;;;938426;149;27426;-78
2024/01/28 11:40:01;;;;;;;4.80;3.80;;;9.10;87.00;;;;;;937957;149;27399;-85
2024/01/28 11:42:28;;;;;;;4.97;3.70;;;9.10;86.10;;;;;;935984;149;27263;-85
2024/01/28 11:44:55;;;;;;;6.17;4.03;;;9.20;86.00;;;;;;937490;149;27310;-81
2024/01/28 11:47:21;;;;;;;7.83;4.03;;;9.30;85.90;;;;;;935918;149;27446;-84
2024/01/28 11:49:48;;;;;;;4.73;4.07;;;9.40;85.70;;;;;;940161;148;27282;-85
2024/01/28 11:52:14;;;;;;;5.07;3.43;;;9.40;85.30;;;;;;937797;149;27448;-85
2024/01/28 11:54:46;;;;;;;5.33;4.10;;;9.50;84.80;;;;;;941581;149;27305;-84
2024/01/28 11:57:08;;;;;;;6.37;3.90;;;9.60;84.60;;;;;;920248;150;27538;-85
2024/01/28 11:59:35;;;;;;;5.30;4.77;;;9.60;84.50;;;;;;938068;149;27315;-85
2024/01/28 12:02:01;;;;;;;5.30;3.97;;;9.70;84.30;;;;;;938451;149;27258;-85
2024/01/28 12:04:27;;;;;;;5.43;4.37;;;9.70;84.00;;;;;;939696;149;27454;-85
2024/01/28 12:06:54;;;;;;;5.70;3.93;;;9.80;83.60;;;;;;938605;149;27454;-81
2024/01/28 12:09:20;;;;;;;6.37;4.40;;;9.80;83.40;;;;;;919992;152;27503;-85
2024/01/28 12:11:47;;;;;;;6.90;3.83;;;9.90;83.10;;;;;;918670;152;27318;-84
2024/01/28 12:14:14;;;;;;;5.60;3.93;;;9.90;82.90;;;;;;937744;148;27311;-82
2024/01/28 12:16:40;;;;;;;4.87;3.60;;;10.00;82.80;;;;;;937686;148;27389;-80
2024/01/28 12:19:07;;;;;;;6.37;4.10;;;10.00;82.80;;;;;;937751;149;27360;-86
2024/01/28 12:21:33;;;;;;;4.87;3.90;;;10.10;82.70;;;;;;920188;150;27479;-84
2024/01/28 12:24:02;;;;;;;5.60;4.00;;;10.10;82.50;;;;;;920434;151;27337;-85
2024/01/28 12:26:27;;;;;;;5.83;4.13;;;10.10;82.30;;;;;;937299;148;27299;-84
2024/01/28 12:28:53;;;;;;;8.73;4.43;;;10.20;82.20;;;;;;940432;149;27359;-83
2024/01/28 12:31:20;;;;;;;5.93;4.30;;;10.20;82.00;;;;;;937127;149;27353;-85
2024/01/28 12:33:46;;;;;;;6.63;4.13;;;10.30;81.80;;;;;;937495;149;27311;-84
2024/01/28 12:36:13;;;;;;;7.20;3.93;;;10.30;81.70;;;;;;939499;148;27406;-83
2024/01/28 12:38:39;;;;;;;4.37;3.97;;;10.40;81.50;;;;;;937976;149;27336;-84
2024/01/28 12:41:06;;;;;;;7.53;4.50;;;10.40;81.30;;;;;;939468;149;28303;-85
2024/01/28 12:43:33;;;;;;;7.60;4.50;;;10.40;81.20;;;;;;939234;149;27251;-84
2024/01/28 12:45:59;;;;;;;4.57;4.00;;;10.50;81.00;;;;;;941164;148;27275;-83